.
WxDataArchive / Data Records for 2010-01-02
2010-01-01 January 2010 2010-01-03

Data Records for Saturday, 02 January 2010

Time	Temp	Chill	HIndex	Humid	Dewpt	 Wind 	HiWind	WindDir	Rain 	Barom 
-----	----	-----	------	-----	-----	------	------	-------	-----	----- 
00:00	10.5	10.5	10.5	84	6.6	1	3	225	0.00	30.293 
00:05	10.5	10.5	10.5	84	6.6	1	3	225	0.00	30.293 
00:10	10.5	10.5	10.5	84	6.6	0	1	225	0.00	30.293 
00:15	10.4	10.4	10.4	84	6.5	0	2	225	0.00	30.293 
00:20	10.2	10.2	10.2	84	6.3	0	2	225	0.00	30.293 
00:25	10.2	10.2	10.2	84	6.3	0	2	225	0.00	30.293 
00:30	10.2	10.2	10.2	84	6.3	0	1	225	0.00	30.291 
00:35	10.2	10.2	10.2	84	6.3	0	2	225	0.00	30.291 
00:40	10.0	10.0	10.0	84	6.2	0	1	225	0.00	30.291 
00:45	10.0	10.0	10.0	84	6.2	0	1	225	0.00	30.290 
00:50	9.9	9.9	9.9	84	6.1	0	1	225	0.00	30.290 
00:55	9.9	9.9	9.9	84	6.1	0	2	225	0.00	30.290 
01:00	9.9	9.9	9.9	84	6.1	0	2	225	0.00	30.289 
01:05	9.9	9.9	9.9	84	6.1	0	2	225	0.00	30.289 
01:10	9.9	9.9	9.9	84	6.1	0	2	225	0.00	30.289 
01:15	9.7	9.7	9.7	84	5.9	0	1	225	0.00	30.288 
01:20	9.7	9.7	9.7	84	5.9	0	1	225	0.00	30.288 
01:25	9.5	9.5	9.5	84	5.7	0	1	225	0.00	30.288 
01:30	9.5	9.5	9.5	84	5.7	0	0	---	0.00	30.289 
01:35	9.3	9.3	9.3	84	5.5	0	0	---	0.00	30.289 
01:40	9.3	9.3	9.3	84	5.5	0	1	225	0.00	30.289 
01:45	9.3	9.3	9.3	84	5.5	0	1	225	0.00	30.293 
01:50	9.3	9.3	9.3	84	5.5	0	1	225	0.00	30.293 
01:55	9.3	9.3	9.3	84	5.5	0	1	225	0.00	30.293 
02:00	9.3	9.3	9.3	84	5.5	0	1	225	0.00	30.294 
02:05	9.3	9.3	9.3	84	5.5	0	1	225	0.00	30.294 
02:10	9.2	9.2	9.2	84	5.4	0	1	225	0.00	30.294 
02:15	9.2	9.2	9.2	84	5.4	0	1	225	0.00	30.296 
02:20	9.2	9.2	9.2	84	5.4	0	1	225	0.00	30.296 
02:25	9.2	9.2	9.2	84	5.4	0	1	225	0.00	30.296 
02:30	9.2	9.2	9.2	84	5.4	0	1	225	0.00	30.297 
02:35	9.2	9.2	9.2	84	5.4	0	2	225	0.00	30.297 
02:40	9.2	9.2	9.2	84	5.4	0	2	225	0.00	30.297 
02:45	9.3	9.3	9.3	85	5.7	0	1	225	0.00	30.306 
02:50	9.3	9.3	9.3	85	5.7	0	2	225	0.00	30.306 
02:55	9.5	9.5	9.5	85	5.9	0	1	225	0.00	30.306 
03:00	9.5	9.5	9.5	85	5.9	0	1	225	0.00	30.310 
03:05	9.5	9.5	9.5	85	5.9	0	1	225	0.00	30.310 
03:10	9.3	9.3	9.3	84	5.5	0	1	225	0.00	30.310 
03:15	9.2	9.2	9.2	84	5.4	0	2	225	0.00	30.315 
03:20	9.2	9.2	9.2	84	5.4	0	1	225	0.00	30.315 
03:25	9.3	9.3	9.3	85	5.7	0	1	225	0.00	30.315 
03:30	9.3	9.3	9.3	85	5.7	0	0	---	0.00	30.324 
03:35	9.3	9.3	9.3	85	5.7	0	2	225	0.00	30.324 
03:40	9.3	9.3	9.3	85	5.7	0	2	225	0.00	30.324 
03:45	9.5	9.5	9.5	85	5.9	0	1	225	0.00	30.326 
03:50	9.5	9.5	9.5	85	5.9	0	2	225	0.00	30.326 
03:55	9.5	9.5	9.5	85	5.9	0	1	225	0.00	30.326 
04:00	9.5	9.5	9.5	85	5.9	0	1	225	0.00	30.323 
04:05	9.5	9.5	9.5	85	5.9	0	1	225	0.00	30.323 
04:10	9.7	9.7	9.7	85	6.1	0	1	225	0.00	30.323 
04:15	9.7	9.7	9.7	85	6.1	0	1	225	0.00	30.327 
04:20	9.7	9.7	9.7	84	5.9	0	1	225	0.00	30.327 
04:25	9.7	9.7	9.7	84	5.9	0	1	225	0.00	30.327 
04:30	9.7	9.7	9.7	84	5.9	0	1	225	0.00	30.328 
04:35	9.5	9.5	9.5	84	5.7	0	1	225	0.00	30.328 
04:40	9.3	9.3	9.3	84	5.5	0	1	225	0.00	30.328 
04:45	9.3	9.3	9.3	84	5.5	0	1	225	0.00	30.329 
04:50	9.3	9.3	9.3	84	5.5	0	1	225	0.00	30.329 
04:55	9.7	9.7	9.7	84	5.9	0	2	225	0.00	30.329 
05:00	9.9	9.9	9.9	84	6.1	0	1	225	0.00	30.330 
05:05	10.2	10.2	10.2	85	6.6	0	2	225	0.00	30.330 
05:10	10.4	10.4	10.4	85	6.8	0	1	225	0.00	30.330 
05:15	10.5	10.5	10.5	85	6.9	0	1	225	0.00	30.330 
05:20	10.5	10.5	10.5	84	6.6	0	0	---	0.00	30.330 
05:25	10.7	10.7	10.7	84	6.8	0	0	---	0.00	30.330 
05:30	10.5	10.5	10.5	84	6.6	0	0	---	0.00	30.330 
05:35	10.4	10.4	10.4	84	6.5	0	0	---	0.00	30.330 
05:40	10.2	10.2	10.2	84	6.3	0	0	---	0.00	30.330 
05:45	10.0	10.0	10.0	84	6.2	0	0	---	0.00	30.340 
05:50	10.0	10.0	10.0	84	6.2	0	0	---	0.00	30.340 
05:55	10.0	10.0	10.0	84	6.2	0	0	---	0.00	30.340 
06:00	10.2	10.2	10.2	84	6.3	0	1	225	0.00	30.340 
06:05	10.5	10.5	10.5	84	6.6	0	0	---	0.00	30.340 
06:10	10.7	10.7	10.7	85	7.1	0	0	---	0.00	30.340 
06:15	10.9	10.9	10.9	85	7.3	0	1	225	0.00	30.342 
06:20	11.2	11.2	11.2	85	7.6	0	3	225	0.00	30.342 
06:25	11.7	11.7	11.7	85	8.1	0	1	225	0.00	30.342 
06:30	11.9	11.9	11.9	85	8.3	0	1	225	0.00	30.344 
06:35	12.1	12.1	12.1	85	8.5	0	1	270	0.00	30.344 
06:40	12.3	12.3	12.3	85	8.7	0	1	270	0.00	30.344 
06:45	12.3	12.3	12.3	85	8.7	0	0	---	0.00	30.344 
06:50	12.4	12.4	12.4	85	8.8	0	1	270	0.00	30.344 
06:55	12.4	12.4	12.4	85	8.8	0	0	---	0.00	30.344 
07:00	12.6	12.6	12.6	84	8.7	0	1	270	0.00	30.347 
07:05	12.6	12.6	12.6	84	8.7	0	0	---	0.00	30.347 
07:10	12.6	12.6	12.6	84	8.7	0	1	270	0.00	30.347 
07:15	12.6	12.6	12.6	84	8.7	0	0	---	0.00	30.349 
07:20	12.8	12.8	12.8	84	8.9	0	0	---	0.00	30.349 
07:25	12.8	12.8	12.8	84	8.9	0	1	270	0.00	30.349 
07:30	12.9	12.9	12.9	84	9.0	0	0	---	0.00	30.353 
07:35	12.9	12.9	12.9	84	9.0	0	0	---	0.00	30.353 
07:40	12.9	12.9	12.9	84	9.0	0	0	---	0.00	30.353 
07:45	12.9	12.9	12.9	84	9.0	0	0	---	0.00	30.357 
07:50	12.9	12.9	12.9	84	9.0	0	0	---	0.00	30.357 
07:55	12.9	12.9	12.9	84	9.0	0	1	270	0.00	30.357 
08:00	12.9	12.9	12.9	84	9.0	0	1	270	0.00	30.358 
08:05	12.9	12.9	12.9	84	9.0	0	1	270	0.00	30.358 
08:10	12.9	12.9	12.9	84	9.0	0	0	---	0.00	30.358 
08:15	13.1	13.1	13.1	84	9.2	0	1	270	0.00	30.365 
08:20	13.1	13.1	13.1	85	9.5	0	1	270	0.00	30.365 
08:25	13.3	13.3	13.3	85	9.7	0	1	270	0.00	30.365 
08:30	13.5	13.5	13.5	85	9.8	0	1	270	0.00	30.366 
08:35	13.6	13.6	13.6	85	9.9	0	2	270	0.00	30.366 
08:40	13.6	13.6	13.6	85	9.9	0	1	270	0.00	30.366 
08:45	13.8	13.8	13.8	85	10.1	0	2	270	0.00	30.371 
08:50	14.0	14.0	14.0	85	10.3	0	1	270	0.00	30.371 
08:55	14.1	14.1	14.1	85	10.4	0	2	270	0.00	30.371 
09:00	14.1	14.1	14.1	85	10.4	0	2	270	0.00	30.374 
09:05	14.3	14.3	14.3	85	10.6	0	2	270	0.00	30.374 
09:10	14.3	14.3	14.3	85	10.6	0	1	270	0.00	30.374 
09:15	14.4	14.4	14.4	85	10.7	0	1	270	0.00	30.379 
09:20	14.4	14.4	14.4	85	10.7	0	2	270	0.00	30.379 
09:25	14.6	14.6	14.6	85	10.9	0	1	270	0.00	30.379 
09:30	14.6	14.6	14.6	85	10.9	0	1	270	0.00	30.384 
09:35	14.6	14.6	14.6	85	10.9	0	2	270	0.00	30.384 
09:40	14.8	14.8	14.8	85	11.1	0	2	270	0.00	30.384 
09:45	14.8	14.8	14.8	85	11.1	0	2	270	0.00	30.392 
09:50	14.9	14.9	14.9	85	11.2	0	2	270	0.00	30.392 
09:55	15.1	15.1	15.1	85	11.4	0	2	270	0.00	30.392 
10:00	15.1	15.1	15.1	84	11.2	0	2	270	0.00	30.391 
10:05	15.1	15.1	15.1	84	11.2	0	2	270	0.00	30.391 
10:10	15.1	15.1	15.1	84	11.2	0	1	270	0.00	30.391 
10:15	15.4	15.4	15.4	84	11.4	0	1	270	0.00	30.391 
10:20	15.6	15.6	15.6	84	11.6	0	2	270	0.00	30.391 
10:25	15.9	15.9	15.9	84	11.9	0	2	270	0.00	30.391 
10:30	16.2	16.2	16.2	84	12.2	0	2	270	0.00	30.391 
10:35	16.5	16.5	16.5	84	12.5	1	2	270	0.00	30.391 
10:40	16.7	16.7	16.7	84	12.7	1	2	270	0.00	30.391 
10:45	16.9	16.9	16.9	84	12.9	0	3	270	0.00	30.389 
10:50	17.0	17.0	17.0	83	12.7	1	3	248	0.00	30.389 
10:55	17.0	17.0	17.0	83	12.7	0	2	315	0.00	30.389 
11:00	17.2	17.2	17.2	82	12.7	1	3	315	0.00	30.386 
11:05	17.2	17.2	17.2	81	12.4	1	4	292	0.00	30.386 
11:10	17.5	17.5	17.5	81	12.7	1	4	248	0.00	30.386 
11:15	17.5	17.5	17.5	81	12.7	1	3	270	0.00	30.382 
11:20	17.8	17.8	17.8	81	13.0	1	3	270	0.00	30.382 
11:25	18.1	18.1	18.1	81	13.3	1	4	270	0.00	30.382 
11:30	18.0	18.0	18.0	79	12.6	1	3	338	0.00	30.378 
11:35	18.0	18.0	18.0	78	12.3	1	4	315	0.00	30.378 
11:40	18.0	18.0	18.0	79	12.6	1	4	248	0.00	30.378 
11:45	17.8	17.8	17.8	80	12.7	1	3	0	0.00	30.376 
11:50	17.8	17.8	17.8	81	13.0	1	2	270	0.00	30.376 
11:55	17.8	17.8	17.8	82	13.3	1	3	248	0.00	30.376 
12:00	18.0	18.0	18.0	82	13.5	0	2	248	0.00	30.374 
12:05	18.1	18.1	18.1	82	13.5	1	4	248	0.00	30.374 
12:10	18.1	18.1	18.1	81	13.3	1	4	248	0.00	30.374 
12:15	18.3	18.3	18.3	81	13.5	1	4	315	0.00	30.362 
12:20	18.0	18.0	18.0	80	12.9	1	3	315	0.00	30.362 
12:25	17.7	17.7	17.7	78	12.0	1	4	338	0.00	30.362 
12:30	18.0	18.0	18.0	78	12.3	1	4	338	0.00	30.356 
12:35	18.4	18.4	18.4	77	12.4	1	3	0	0.00	30.356 
12:40	18.6	18.6	18.6	76	12.3	1	3	315	0.00	30.356 
12:45	18.8	18.8	18.8	76	12.5	1	3	292	0.00	30.344 
12:50	18.6	18.6	18.6	74	11.7	1	4	315	0.00	30.344 
12:55	18.1	18.1	18.1	74	11.2	1	3	292	0.00	30.344 
13:00	18.0	18.0	18.0	75	11.4	1	3	315	0.00	30.342 
13:05	18.3	18.3	18.3	75	11.7	1	3	292	0.00	30.342 
13:10	18.4	18.4	18.4	73	11.2	1	5	315	0.00	30.342 
13:15	18.4	18.4	18.4	72	10.9	1	5	270	0.00	30.336 
13:20	18.3	18.3	18.3	70	10.2	1	4	270	0.00	30.336 
13:25	18.1	18.1	18.1	69	9.7	1	3	292	0.00	30.336 
13:30	18.1	18.1	18.1	68	9.3	1	3	315	0.00	30.332 
13:35	18.3	18.3	18.3	68	9.5	1	4	270	0.00	30.332 
13:40	18.1	18.1	18.1	67	9.0	1	3	292	0.00	30.332 
13:45	17.8	17.8	17.8	67	8.7	1	3	338	0.00	30.331 
13:50	17.8	17.8	17.8	66	8.4	1	3	270	0.00	30.331 
13:55	18.1	18.1	18.1	67	9.0	1	4	338	0.00	30.331 
14:00	18.6	18.6	18.6	66	9.2	1	4	248	0.00	30.329 
14:05	19.1	19.1	19.1	65	9.3	1	3	0	0.00	30.329 
14:10	19.1	19.1	19.1	64	9.0	1	3	315	0.00	30.329 
14:15	19.2	19.2	19.2	65	9.4	1	2	315	0.00	30.327 
14:20	19.1	19.1	19.1	64	9.0	1	5	338	0.00	30.327 
14:25	18.9	18.9	18.9	64	8.8	1	3	338	0.00	30.327 
14:30	18.9	18.9	18.9	66	9.4	1	3	248	0.00	30.329 
14:35	18.8	18.8	18.8	66	9.4	2	3	248	0.00	30.329 
14:40	18.8	18.8	18.8	66	9.4	1	3	248	0.00	30.329 
14:45	18.8	18.8	18.8	66	9.4	1	4	270	0.00	30.328 
14:50	18.8	18.8	18.8	66	9.4	2	4	270	0.00	30.328 
14:55	18.8	18.8	18.8	66	9.4	2	5	270	0.00	30.328 
15:00	18.8	18.8	18.8	67	9.7	2	5	248	0.00	30.329 
15:05	18.6	18.6	18.6	66	9.2	2	4	270	0.00	30.329 
15:10	18.6	18.6	18.6	67	9.5	1	5	315	0.00	30.329 
15:15	18.6	18.6	18.6	66	9.2	2	5	270	0.00	30.329 
15:20	18.6	18.6	18.6	66	9.2	2	4	270	0.00	30.329 
15:25	18.8	18.8	18.8	67	9.7	2	4	248	0.00	30.329 
15:30	18.6	18.6	18.6	68	9.8	2	3	270	0.00	30.329 
15:35	18.4	18.4	18.4	69	10.0	2	4	270	0.00	30.329 
15:40	18.6	18.6	18.6	69	10.2	1	7	270	0.00	30.329 
15:45	18.4	18.4	18.4	70	10.3	2	4	270	0.00	30.328 
15:50	18.4	18.4	18.4	69	10.0	1	4	270	0.00	30.328 
15:55	18.3	18.3	18.3	69	9.9	1	3	248	0.00	30.328 
16:00	18.3	18.3	18.3	70	10.2	2	5	270	0.00	30.331 
16:05	18.3	18.3	18.3	71	10.5	2	3	248	0.00	30.331 
16:10	18.3	18.3	18.3	72	10.8	1	3	248	0.00	30.331 
16:15	18.1	18.1	18.1	72	10.6	2	4	248	0.00	30.333 
16:20	18.1	18.1	18.1	72	10.6	1	3	270	0.00	30.333 
16:25	18.1	18.1	18.1	72	10.6	1	3	248	0.00	30.333 
16:30	18.1	18.1	18.1	73	10.9	1	4	248	0.00	30.338 
16:35	18.0	18.0	18.0	75	11.4	2	4	248	0.00	30.338 
16:40	17.8	17.8	17.8	76	11.5	2	5	270	0.00	30.338 
16:45	17.7	17.7	17.7	77	11.7	3	7	248	0.00	30.342 
16:50	17.2	17.2	17.2	78	11.5	3	7	248	0.00	30.342 
16:55	17.0	17.0	17.0	78	11.3	2	5	248	0.00	30.342 
17:00	16.9	16.9	16.9	78	11.3	2	5	225	0.00	30.343 
17:05	16.7	16.7	16.7	79	11.3	1	4	270	0.00	30.343 
17:10	16.5	16.5	16.5	78	10.9	3	6	270	0.00	30.343 
17:15	16.4	16.4	16.4	78	10.8	2	5	270	0.00	30.346 
17:20	15.9	9.5	15.9	77	10.0	4	9	248	0.00	30.346 
17:25	15.4	15.4	15.4	78	9.8	2	5	248	0.00	30.346 
17:30	15.2	15.2	15.2	79	9.9	2	6	248	0.00	30.347 
17:35	14.9	14.9	14.9	79	9.6	2	5	248	0.00	30.347 
17:40	14.6	14.6	14.6	79	9.3	2	6	270	0.00	30.347 
17:45	14.4	14.4	14.4	79	9.1	3	10	270	0.00	30.353 
17:50	14.3	14.3	14.3	79	9.0	3	5	248	0.00	30.353 
17:55	14.1	14.1	14.1	79	8.8	2	6	270	0.00	30.353 
18:00	14.1	14.1	14.1	79	8.8	2	4	248	0.00	30.361 
18:05	14.0	14.0	14.0	78	8.4	1	5	270	0.00	30.361 
18:10	14.0	14.0	14.0	78	8.4	3	6	270	0.00	30.361 
18:15	13.8	13.8	13.8	77	7.9	3	6	270	0.00	30.360 
18:20	13.6	13.6	13.6	77	7.8	2	5	248	0.00	30.360 
18:25	13.3	13.3	13.3	77	7.5	2	5	270	0.00	30.360 
18:30	13.1	13.1	13.1	77	7.3	2	4	270	0.00	30.364 
18:35	12.9	12.9	12.9	77	7.1	2	5	270	0.00	30.364 
18:40	12.8	12.8	12.8	77	7.0	3	9	270	0.00	30.364 
18:45	12.6	12.6	12.6	77	6.8	2	4	270	0.00	30.367 
18:50	12.3	12.3	12.3	78	6.8	2	4	270	0.00	30.367 
18:55	11.9	11.9	11.9	78	6.4	2	4	270	0.00	30.367 
19:00	11.7	11.7	11.7	78	6.2	2	5	225	0.00	30.372 
19:05	11.6	11.6	11.6	78	6.1	2	3	225	0.00	30.372 
19:10	11.2	11.2	11.2	78	5.7	1	3	225	0.00	30.372 
19:15	11.1	11.1	11.1	78	5.6	1	3	248	0.00	30.376 
19:20	10.9	10.9	10.9	78	5.4	2	4	248	0.00	30.376 
19:25	10.5	10.5	10.5	77	4.7	3	10	248	0.00	30.376 
19:30	10.2	10.2	10.2	77	4.5	2	5	270	0.00	30.375 
19:35	10.0	10.0	10.0	77	4.3	2	5	248	0.00	30.375 
19:40	9.9	9.9	9.9	77	4.2	1	3	248	0.00	30.375 
19:45	9.7	9.7	9.7	77	4.0	2	5	270	0.00	30.375 
19:50	9.5	9.5	9.5	77	3.8	2	5	270	0.00	30.375 
19:55	9.3	9.3	9.3	77	3.6	2	4	248	0.00	30.375 
20:00	9.3	9.3	9.3	78	3.9	3	5	270	0.00	30.377 
20:05	9.3	9.3	9.3	77	3.6	2	7	270	0.00	30.377 
20:10	9.2	9.2	9.2	77	3.5	2	5	248	0.00	30.377 
20:15	9.2	9.2	9.2	77	3.5	2	7	248	0.00	30.371 
20:20	9.0	9.0	9.0	77	3.3	2	5	270	0.00	30.371 
20:25	8.8	8.8	8.8	77	3.1	2	4	248	0.00	30.371 
20:30	8.6	8.6	8.6	76	2.6	1	3	292	0.00	30.380 
20:35	8.6	8.6	8.6	76	2.6	2	4	248	0.00	30.380 
20:40	8.4	8.4	8.4	75	2.1	2	6	248	0.00	30.380 
20:45	8.3	8.3	8.3	75	2.0	2	5	270	0.00	30.381 
20:50	8.1	8.1	8.1	75	1.8	1	3	248	0.00	30.381 
20:55	8.1	8.1	8.1	75	1.8	1	4	248	0.00	30.381 
21:00	8.1	8.1	8.1	75	1.8	2	4	248	0.00	30.382 
21:05	8.3	8.3	8.3	75	2.0	2	4	225	0.00	30.382 
21:10	8.3	8.3	8.3	75	2.0	1	3	225	0.00	30.382 
21:15	8.3	8.3	8.3	75	2.0	1	4	248	0.00	30.395 
21:20	8.3	8.3	8.3	75	2.0	1	3	315	0.00	30.395 
21:25	8.1	8.1	8.1	76	2.1	1	4	270	0.00	30.395 
21:30	7.9	7.9	7.9	76	1.9	2	4	270	0.00	30.394 
21:35	7.9	7.9	7.9	76	1.9	2	5	270	0.00	30.394 
21:40	7.7	7.7	7.7	76	1.7	1	4	315	0.00	30.394 
21:45	7.6	7.6	7.6	77	1.9	1	4	248	0.00	30.396 
21:50	7.6	7.6	7.6	77	1.9	1	3	270	0.00	30.396 
21:55	7.6	7.6	7.6	77	1.9	1	3	248	0.00	30.396 
22:00	7.4	7.4	7.4	77	1.7	1	3	270	0.00	30.396 
22:05	7.2	7.2	7.2	77	1.5	1	2	248	0.00	30.396 
22:10	7.2	7.2	7.2	77	1.5	1	2	270	0.00	30.396 
22:15	7.4	7.4	7.4	77	1.7	1	2	270	0.00	30.389 
22:20	7.4	7.4	7.4	77	1.7	1	2	270	0.00	30.389 
22:25	7.6	7.6	7.6	78	2.2	1	2	270	0.00	30.389 
22:30	7.7	7.7	7.7	78	2.3	1	3	270	0.00	30.394 
22:35	7.9	7.9	7.9	78	2.5	1	3	270	0.00	30.394 
22:40	7.9	7.9	7.9	78	2.5	1	2	270	0.00	30.394 
22:45	8.1	8.1	8.1	78	2.7	0	2	270	0.00	30.393 
22:50	8.1	8.1	8.1	78	2.7	0	1	270	0.00	30.393 
22:55	8.1	8.1	8.1	78	2.7	0	3	248	0.00	30.393 
23:00	8.1	8.1	8.1	78	2.7	0	1	338	0.00	30.391 
23:05	7.9	7.9	7.9	78	2.5	0	2	270	0.00	30.391 
23:10	7.9	7.9	7.9	78	2.5	0	2	270	0.00	30.391 
23:15	7.9	7.9	7.9	78	2.5	0	2	270	0.00	30.389 
23:20	7.7	7.7	7.7	78	2.3	0	2	270	0.00	30.389 
23:25	7.6	7.6	7.6	78	2.2	0	1	270	0.00	30.389 
23:30	7.4	7.4	7.4	78	2.0	0	1	270	0.00	30.392 
23:35	7.2	7.2	7.2	79	2.1	0	1	270	0.00	30.392 
23:40	7.2	7.2	7.2	79	2.1	0	1	270	0.00	30.392 
23:45	7.0	7.0	7.0	79	1.9	0	1	270	0.00	30.385 
23:50	6.9	6.9	6.9	79	1.8	0	1	270	0.00	30.385 
23:55	6.7	6.7	6.7	79	1.6	0	0	---	0.00	30.385 

CoCoRaHS
IN-AL-39
A2 Web Hosting
Creative Commons License
GoDaddy
search engine by freefind advanced

loaded 2018-11-19 18:38:46 • last modified 2010-11-18 10:43:29
Privacy PolicyDisclaimer
• wx.awcolley.com is powered by PmWiki v.2002016 •
• all content (unless otherwise noted) © 2018 A W Colley